sensor_id;sensor_type;location;lat;lon;timestamp;P1;durP1;ratioP1;P2;durP2;ratioP2
21305;SDS011;10812;51.838;5.838;2023-04-15T00:00:55;6.50;;;4.07;;
21305;SDS011;10812;51.838;5.838;2023-04-15T00:06:35;5.30;;;3.83;;
21305;SDS011;10812;51.838;5.838;2023-04-15T00:09:04;8.10;;;4.10;;
21305;SDS011;10812;51.838;5.838;2023-04-15T00:11:34;6.10;;;3.40;;
21305;SDS011;10812;51.838;5.838;2023-04-15T00:14:02;7.60;;;4.10;;
21305;SDS011;10812;51.838;5.838;2023-04-15T00:16:31;5.60;;;3.60;;
21305;SDS011;10812;51.838;5.838;2023-04-15T00:18:59;6.90;;;3.90;;
21305;SDS011;10812;51.838;5.838;2023-04-15T00:21:28;6.53;;;3.97;;
21305;SDS011;10812;51.838;5.838;2023-04-15T00:23:56;5.87;;;3.77;;
21305;SDS011;10812;51.838;5.838;2023-04-15T00:26:24;5.17;;;3.53;;
21305;SDS011;10812;51.838;5.838;2023-04-15T00:28:53;4.47;;;3.73;;
21305;SDS011;10812;51.838;5.838;2023-04-15T00:31:22;6.10;;;3.77;;
21305;SDS011;10812;51.838;5.838;2023-04-15T00:33:50;6.70;;;5.10;;
21305;SDS011;10812;51.838;5.838;2023-04-15T00:36:18;8.37;;;4.50;;
21305;SDS011;10812;51.838;5.838;2023-04-15T00:38:46;8.90;;;4.17;;
21305;SDS011;10812;51.838;5.838;2023-04-15T00:41:14;7.00;;;4.20;;
21305;SDS011;10812;51.838;5.838;2023-04-15T00:43:43;7.10;;;4.57;;
21305;SDS011;10812;51.838;5.838;2023-04-15T00:46:13;7.27;;;4.53;;
21305;SDS011;10812;51.838;5.838;2023-04-15T00:48:43;6.77;;;4.90;;
21305;SDS011;10812;51.838;5.838;2023-04-15T00:51:12;10.63;;;4.83;;
21305;SDS011;10812;51.838;5.838;2023-04-15T00:53:41;9.37;;;5.17;;
21305;SDS011;10812;51.838;5.838;2023-04-15T00:56:09;7.90;;;4.70;;
21305;SDS011;10812;51.838;5.838;2023-04-15T00:58:37;6.37;;;4.67;;
21305;SDS011;10812;51.838;5.838;2023-04-15T01:01:05;11.27;;;4.77;;
21305;SDS011;10812;51.838;5.838;2023-04-15T01:03:35;6.73;;;4.40;;
21305;SDS011;10812;51.838;5.838;2023-04-15T01:17:02;6.83;;;4.23;;
21305;SDS011;10812;51.838;5.838;2023-04-15T01:19:32;6.83;;;4.73;;
21305;SDS011;10812;51.838;5.838;2023-04-15T01:22:01;8.50;;;4.87;;
21305;SDS011;10812;51.838;5.838;2023-04-15T01:24:30;5.90;;;4.27;;
21305;SDS011;10812;51.838;5.838;2023-04-15T01:27:00;5.90;;;4.60;;
21305;SDS011;10812;51.838;5.838;2023-04-15T01:29:30;7.73;;;4.97;;
21305;SDS011;10812;51.838;5.838;2023-04-15T01:31:59;8.90;;;4.80;;
21305;SDS011;10812;51.838;5.838;2023-04-15T01:34:27;7.10;;;4.77;;
21305;SDS011;10812;51.838;5.838;2023-04-15T01:36:55;5.37;;;4.43;;
21305;SDS011;10812;51.838;5.838;2023-04-15T01:39:23;6.70;;;4.50;;
21305;SDS011;10812;51.838;5.838;2023-04-15T01:41:51;7.33;;;4.33;;
21305;SDS011;10812;51.838;5.838;2023-04-15T01:44:21;7.33;;;4.77;;
21305;SDS011;10812;51.838;5.838;2023-04-15T01:46:49;6.63;;;4.73;;
21305;SDS011;10812;51.838;5.838;2023-04-15T01:49:17;8.53;;;4.83;;
21305;SDS011;10812;51.838;5.838;2023-04-15T01:51:45;7.53;;;4.73;;
21305;SDS011;10812;51.838;5.838;2023-04-15T01:54:13;7.57;;;5.07;;
21305;SDS011;10812;51.838;5.838;2023-04-15T01:56:41;9.83;;;4.17;;
21305;SDS011;10812;51.838;5.838;2023-04-15T01:59:10;11.53;;;5.07;;
21305;SDS011;10812;51.838;5.838;2023-04-15T02:01:39;9.80;;;4.50;;
21305;SDS011;10812;51.838;5.838;2023-04-15T02:04:07;6.17;;;4.43;;
21305;SDS011;10812;51.838;5.838;2023-04-15T02:06:41;8.87;;;5.10;;
21305;SDS011;10812;51.838;5.838;2023-04-15T02:09:10;8.57;;;4.90;;
21305;SDS011;10812;51.838;5.838;2023-04-15T02:11:38;5.33;;;4.80;;
21305;SDS011;10812;51.838;5.838;2023-04-15T02:14:06;8.07;;;5.10;;
21305;SDS011;10812;51.838;5.838;2023-04-15T02:16:36;7.50;;;5.43;;
21305;SDS011;10812;51.838;5.838;2023-04-15T02:19:05;7.43;;;4.63;;
21305;SDS011;10812;51.838;5.838;2023-04-15T02:21:34;5.07;;;4.50;;
21305;SDS011;10812;51.838;5.838;2023-04-15T02:24:02;9.53;;;5.87;;
21305;SDS011;10812;51.838;5.838;2023-04-15T02:26:30;9.07;;;5.83;;
21305;SDS011;10812;51.838;5.838;2023-04-15T02:28:59;7.90;;;5.43;;
21305;SDS011;10812;51.838;5.838;2023-04-15T02:31:27;6.73;;;5.50;;
21305;SDS011;10812;51.838;5.838;2023-04-15T02:33:56;7.70;;;5.70;;
21305;SDS011;10812;51.838;5.838;2023-04-15T02:50:47;8.80;;;5.50;;
21305;SDS011;10812;51.838;5.838;2023-04-15T02:53:17;7.43;;;5.20;;
21305;SDS011;10812;51.838;5.838;2023-04-15T02:55:46;10.13;;;5.73;;
21305;SDS011;10812;51.838;5.838;2023-04-15T02:58:14;9.67;;;6.10;;
21305;SDS011;10812;51.838;5.838;2023-04-15T03:06:04;6.80;;;6.03;;
21305;SDS011;10812;51.838;5.838;2023-04-15T03:08:34;7.97;;;5.63;;
21305;SDS011;10812;51.838;5.838;2023-04-15T03:11:02;7.93;;;5.97;;
21305;SDS011;10812;51.838;5.838;2023-04-15T03:13:31;9.43;;;5.30;;
21305;SDS011;10812;51.838;5.838;2023-04-15T03:15:59;8.60;;;5.73;;
21305;SDS011;10812;51.838;5.838;2023-04-15T03:18:27;8.50;;;5.93;;
21305;SDS011;10812;51.838;5.838;2023-04-15T03:20:56;11.03;;;5.37;;
21305;SDS011;10812;51.838;5.838;2023-04-15T03:23:25;10.43;;;5.40;;
21305;SDS011;10812;51.838;5.838;2023-04-15T03:25:53;8.60;;;5.47;;
21305;SDS011;10812;51.838;5.838;2023-04-15T03:28:23;8.10;;;5.03;;
21305;SDS011;10812;51.838;5.838;2023-04-15T03:31:06;7.13;;;5.23;;
21305;SDS011;10812;51.838;5.838;2023-04-15T03:33:34;8.03;;;5.30;;
21305;SDS011;10812;51.838;5.838;2023-04-15T03:36:03;8.63;;;5.50;;
21305;SDS011;10812;51.838;5.838;2023-04-15T03:38:32;7.70;;;5.47;;
21305;SDS011;10812;51.838;5.838;2023-04-15T03:41:01;8.33;;;5.27;;
21305;SDS011;10812;51.838;5.838;2023-04-15T03:43:29;7.83;;;5.23;;
21305;SDS011;10812;51.838;5.838;2023-04-15T03:45:57;9.77;;;5.23;;
21305;SDS011;10812;51.838;5.838;2023-04-15T03:48:27;7.20;;;5.40;;
21305;SDS011;10812;51.838;5.838;2023-04-15T03:50:55;8.10;;;4.60;;
21305;SDS011;10812;51.838;5.838;2023-04-15T03:53:23;7.33;;;5.03;;
21305;SDS011;10812;51.838;5.838;2023-04-15T03:55:52;7.50;;;5.53;;
21305;SDS011;10812;51.838;5.838;2023-04-15T03:58:21;7.10;;;5.50;;
21305;SDS011;10812;51.838;5.838;2023-04-15T04:00:49;9.83;;;5.70;;
21305;SDS011;10812;51.838;5.838;2023-04-15T04:03:17;7.13;;;5.60;;
21305;SDS011;10812;51.838;5.838;2023-04-15T04:05:46;8.90;;;5.97;;
21305;SDS011;10812;51.838;5.838;2023-04-15T04:08:14;6.57;;;5.20;;
21305;SDS011;10812;51.838;5.838;2023-04-15T04:10:44;7.77;;;5.57;;
21305;SDS011;10812;51.838;5.838;2023-04-15T04:13:14;9.03;;;6.17;;
21305;SDS011;10812;51.838;5.838;2023-04-15T04:15:43;8.70;;;5.67;;
21305;SDS011;10812;51.838;5.838;2023-04-15T04:18:11;9.07;;;5.90;;
21305;SDS011;10812;51.838;5.838;2023-04-15T04:20:39;10.37;;;6.33;;
21305;SDS011;10812;51.838;5.838;2023-04-15T04:23:08;7.83;;;5.93;;
21305;SDS011;10812;51.838;5.838;2023-04-15T04:25:36;10.10;;;6.27;;
21305;SDS011;10812;51.838;5.838;2023-04-15T04:31:56;8.03;;;5.63;;
21305;SDS011;10812;51.838;5.838;2023-04-15T04:34:25;13.00;;;6.70;;
21305;SDS011;10812;51.838;5.838;2023-04-15T04:36:53;8.40;;;5.97;;
21305;SDS011;10812;51.838;5.838;2023-04-15T04:39:21;8.83;;;6.20;;
21305;SDS011;10812;51.838;5.838;2023-04-15T04:41:49;9.87;;;6.57;;
21305;SDS011;10812;51.838;5.838;2023-04-15T04:44:17;9.37;;;6.70;;
21305;SDS011;10812;51.838;5.838;2023-04-15T04:46:45;10.03;;;6.83;;
21305;SDS011;10812;51.838;5.838;2023-04-15T04:49:15;9.57;;;6.87;;
21305;SDS011;10812;51.838;5.838;2023-04-15T04:51:43;12.57;;;6.67;;
21305;SDS011;10812;51.838;5.838;2023-04-15T04:54:12;11.23;;;6.87;;
21305;SDS011;10812;51.838;5.838;2023-04-15T04:56:40;8.73;;;6.63;;
21305;SDS011;10812;51.838;5.838;2023-04-15T04:59:08;10.40;;;7.43;;
21305;SDS011;10812;51.838;5.838;2023-04-15T05:01:37;11.87;;;7.00;;
21305;SDS011;10812;51.838;5.838;2023-04-15T05:04:05;10.87;;;7.17;;
21305;SDS011;10812;51.838;5.838;2023-04-15T05:06:35;9.87;;;6.80;;
21305;SDS011;10812;51.838;5.838;2023-04-15T05:09:03;9.60;;;6.60;;
21305;SDS011;10812;51.838;5.838;2023-04-15T05:11:31;12.30;;;7.23;;
21305;SDS011;10812;51.838;5.838;2023-04-15T05:13:59;12.10;;;7.40;;
21305;SDS011;10812;51.838;5.838;2023-04-15T05:16:27;10.00;;;7.80;;
21305;SDS011;10812;51.838;5.838;2023-04-15T05:18:55;10.23;;;7.23;;
21305;SDS011;10812;51.838;5.838;2023-04-15T05:21:24;10.57;;;7.00;;
21305;SDS011;10812;51.838;5.838;2023-04-15T05:23:54;10.20;;;8.33;;
21305;SDS011;10812;51.838;5.838;2023-04-15T05:26:22;12.07;;;7.40;;
21305;SDS011;10812;51.838;5.838;2023-04-15T05:28:50;8.60;;;6.83;;
21305;SDS011;10812;51.838;5.838;2023-04-15T05:31:19;11.57;;;7.43;;
21305;SDS011;10812;51.838;5.838;2023-04-15T05:33:47;12.13;;;7.27;;
21305;SDS011;10812;51.838;5.838;2023-04-15T05:36:15;13.13;;;8.13;;
21305;SDS011;10812;51.838;5.838;2023-04-15T05:38:44;10.93;;;7.87;;
21305;SDS011;10812;51.838;5.838;2023-04-15T05:41:13;9.87;;;7.07;;
21305;SDS011;10812;51.838;5.838;2023-04-15T05:43:45;12.57;;;7.73;;
21305;SDS011;10812;51.838;5.838;2023-04-15T05:46:13;11.23;;;7.87;;
21305;SDS011;10812;51.838;5.838;2023-04-15T05:48:41;13.10;;;7.93;;
21305;SDS011;10812;51.838;5.838;2023-04-15T05:51:09;10.07;;;6.73;;
21305;SDS011;10812;51.838;5.838;2023-04-15T05:53:37;9.77;;;5.80;;
21305;SDS011;10812;51.838;5.838;2023-04-15T05:56:06;14.80;;;8.07;;
21305;SDS011;10812;51.838;5.838;2023-04-15T05:58:36;13.17;;;7.57;;
21305;SDS011;10812;51.838;5.838;2023-04-15T06:01:04;10.30;;;7.17;;
21305;SDS011;10812;51.838;5.838;2023-04-15T06:03:32;11.13;;;7.60;;
21305;SDS011;10812;51.838;5.838;2023-04-15T06:06:01;10.13;;;7.07;;
21305;SDS011;10812;51.838;5.838;2023-04-15T06:08:29;9.77;;;7.57;;
21305;SDS011;10812;51.838;5.838;2023-04-15T06:10:57;10.80;;;7.27;;
21305;SDS011;10812;51.838;5.838;2023-04-15T06:13:25;10.43;;;7.20;;
21305;SDS011;10812;51.838;5.838;2023-04-15T06:15:55;12.87;;;6.93;;
21305;SDS011;10812;51.838;5.838;2023-04-15T06:18:23;10.30;;;6.53;;
21305;SDS011;10812;51.838;5.838;2023-04-15T06:20:51;11.20;;;7.23;;
21305;SDS011;10812;51.838;5.838;2023-04-15T06:23:20;8.80;;;6.90;;
21305;SDS011;10812;51.838;5.838;2023-04-15T06:25:48;7.87;;;6.23;;
21305;SDS011;10812;51.838;5.838;2023-04-15T06:28:17;9.20;;;6.83;;
21305;SDS011;10812;51.838;5.838;2023-04-15T06:30:45;8.70;;;6.10;;
21305;SDS011;10812;51.838;5.838;2023-04-15T06:33:14;10.20;;;6.50;;
21305;SDS011;10812;51.838;5.838;2023-04-15T06:35:42;8.87;;;7.00;;
21305;SDS011;10812;51.838;5.838;2023-04-15T06:38:11;9.97;;;6.57;;
21305;SDS011;10812;51.838;5.838;2023-04-15T06:40:39;8.77;;;6.97;;
21305;SDS011;10812;51.838;5.838;2023-04-15T06:43:07;11.70;;;7.20;;
21305;SDS011;10812;51.838;5.838;2023-04-15T06:45:35;6.93;;;5.97;;
21305;SDS011;10812;51.838;5.838;2023-04-15T06:48:04;8.70;;;6.77;;
21305;SDS011;10812;51.838;5.838;2023-04-15T06:50:34;8.17;;;6.00;;
21305;SDS011;10812;51.838;5.838;2023-04-15T06:53:03;8.77;;;6.17;;
21305;SDS011;10812;51.838;5.838;2023-04-15T06:55:31;7.43;;;5.80;;
21305;SDS011;10812;51.838;5.838;2023-04-15T06:58:02;7.87;;;6.13;;
21305;SDS011;10812;51.838;5.838;2023-04-15T07:00:30;8.73;;;6.67;;
21305;SDS011;10812;51.838;5.838;2023-04-15T07:03:02;8.67;;;6.50;;
21305;SDS011;10812;51.838;5.838;2023-04-15T07:05:30;10.93;;;6.80;;
21305;SDS011;10812;51.838;5.838;2023-04-15T07:08:00;8.60;;;6.20;;
21305;SDS011;10812;51.838;5.838;2023-04-15T07:10:28;9.63;;;6.40;;
21305;SDS011;10812;51.838;5.838;2023-04-15T07:12:57;11.93;;;6.67;;
21305;SDS011;10812;51.838;5.838;2023-04-15T07:15:25;8.17;;;6.17;;
21305;SDS011;10812;51.838;5.838;2023-04-15T07:17:54;9.03;;;6.63;;
21305;SDS011;10812;51.838;5.838;2023-04-15T07:20:22;11.53;;;6.33;;
21305;SDS011;10812;51.838;5.838;2023-04-15T07:22:51;7.97;;;6.20;;
21305;SDS011;10812;51.838;5.838;2023-04-15T07:25:23;8.93;;;7.27;;
21305;SDS011;10812;51.838;5.838;2023-04-15T07:27:51;10.50;;;7.47;;
21305;SDS011;10812;51.838;5.838;2023-04-15T07:30:20;9.30;;;7.00;;
21305;SDS011;10812;51.838;5.838;2023-04-15T07:32:51;9.03;;;7.43;;
21305;SDS011;10812;51.838;5.838;2023-04-15T07:35:20;8.63;;;6.77;;
21305;SDS011;10812;51.838;5.838;2023-04-15T07:37:49;9.07;;;6.97;;
21305;SDS011;10812;51.838;5.838;2023-04-15T07:40:17;9.73;;;6.83;;
21305;SDS011;10812;51.838;5.838;2023-04-15T07:42:47;9.90;;;7.33;;
21305;SDS011;10812;51.838;5.838;2023-04-15T07:45:15;9.80;;;6.67;;
21305;SDS011;10812;51.838;5.838;2023-04-15T07:47:44;9.17;;;6.60;;
21305;SDS011;10812;51.838;5.838;2023-04-15T07:50:16;9.60;;;6.63;;
21305;SDS011;10812;51.838;5.838;2023-04-15T07:52:45;10.63;;;7.23;;
21305;SDS011;10812;51.838;5.838;2023-04-15T07:55:13;11.03;;;7.50;;
21305;SDS011;10812;51.838;5.838;2023-04-15T07:57:44;8.00;;;6.20;;
21305;SDS011;10812;51.838;5.838;2023-04-15T08:00:15;7.73;;;5.93;;
21305;SDS011;10812;51.838;5.838;2023-04-15T08:02:43;8.63;;;6.40;;
21305;SDS011;10812;51.838;5.838;2023-04-15T08:05:13;9.53;;;6.03;;
21305;SDS011;10812;51.838;5.838;2023-04-15T08:07:42;7.90;;;5.80;;
21305;SDS011;10812;51.838;5.838;2023-04-15T08:10:10;7.57;;;5.50;;
21305;SDS011;10812;51.838;5.838;2023-04-15T08:12:39;7.20;;;5.63;;
21305;SDS011;10812;51.838;5.838;2023-04-15T08:15:08;7.83;;;5.20;;
21305;SDS011;10812;51.838;5.838;2023-04-15T08:17:39;6.63;;;5.53;;
21305;SDS011;10812;51.838;5.838;2023-04-15T08:20:08;9.20;;;5.40;;
21305;SDS011;10812;51.838;5.838;2023-04-15T08:22:37;7.77;;;5.70;;
21305;SDS011;10812;51.838;5.838;2023-04-15T08:25:06;7.53;;;5.67;;
21305;SDS011;10812;51.838;5.838;2023-04-15T08:27:36;6.30;;;5.03;;
21305;SDS011;10812;51.838;5.838;2023-04-15T08:30:04;6.43;;;4.97;;
21305;SDS011;10812;51.838;5.838;2023-04-15T08:32:33;5.77;;;5.13;;
21305;SDS011;10812;51.838;5.838;2023-04-15T08:35:03;5.47;;;4.30;;
21305;SDS011;10812;51.838;5.838;2023-04-15T08:37:33;7.43;;;4.70;;
21305;SDS011;10812;51.838;5.838;2023-04-15T08:40:01;6.03;;;4.60;;
21305;SDS011;10812;51.838;5.838;2023-04-15T08:42:30;6.17;;;3.73;;
21305;SDS011;10812;51.838;5.838;2023-04-15T08:45:03;5.47;;;3.70;;
21305;SDS011;10812;51.838;5.838;2023-04-15T08:47:32;4.97;;;3.50;;
21305;SDS011;10812;51.838;5.838;2023-04-15T08:50:04;4.97;;;3.63;;
21305;SDS011;10812;51.838;5.838;2023-04-15T08:52:36;4.43;;;3.63;;
21305;SDS011;10812;51.838;5.838;2023-04-15T08:55:05;5.10;;;3.70;;
21305;SDS011;10812;51.838;5.838;2023-04-15T08:57:35;5.17;;;3.70;;
21305;SDS011;10812;51.838;5.838;2023-04-15T09:00:08;3.10;;;2.60;;
21305;SDS011;10812;51.838;5.838;2023-04-15T09:02:37;5.83;;;2.60;;
21305;SDS011;10812;51.838;5.838;2023-04-15T09:05:08;2.67;;;2.23;;
21305;SDS011;10812;51.838;5.838;2023-04-15T09:07:36;3.73;;;2.23;;
21305;SDS011;10812;51.838;5.838;2023-04-15T09:10:05;3.53;;;2.30;;
21305;SDS011;10812;51.838;5.838;2023-04-15T09:12:34;3.33;;;2.10;;
21305;SDS011;10812;51.838;5.838;2023-04-15T09:15:02;4.80;;;2.90;;
21305;SDS011;10812;51.838;5.838;2023-04-15T09:17:31;3.90;;;2.20;;
21305;SDS011;10812;51.838;5.838;2023-04-15T09:20:08;5.67;;;2.20;;
21305;SDS011;10812;51.838;5.838;2023-04-15T09:22:38;2.93;;;2.53;;
21305;SDS011;10812;51.838;5.838;2023-04-15T09:27:54;2.30;;;2.10;;
21305;SDS011;10812;51.838;5.838;2023-04-15T09:30:23;3.50;;;2.57;;
21305;SDS011;10812;51.838;5.838;2023-04-15T09:32:52;2.50;;;2.30;;
21305;SDS011;10812;51.838;5.838;2023-04-15T09:35:24;3.47;;;2.47;;
21305;SDS011;10812;51.838;5.838;2023-04-15T09:37:53;4.30;;;2.87;;
21305;SDS011;10812;51.838;5.838;2023-04-15T09:40:30;4.80;;;2.53;;
21305;SDS011;10812;51.838;5.838;2023-04-15T09:42:59;2.80;;;2.40;;
21305;SDS011;10812;51.838;5.838;2023-04-15T09:45:28;4.07;;;2.40;;
21305;SDS011;10812;51.838;5.838;2023-04-15T09:47:58;3.97;;;2.87;;
21305;SDS011;10812;51.838;5.838;2023-04-15T09:50:28;3.77;;;2.57;;
21305;SDS011;10812;51.838;5.838;2023-04-15T09:52:56;2.93;;;2.13;;
21305;SDS011;10812;51.838;5.838;2023-04-15T09:55:25;2.90;;;2.47;;
21305;SDS011;10812;51.838;5.838;2023-04-15T09:57:53;3.77;;;2.40;;
21305;SDS011;10812;51.838;5.838;2023-04-15T10:00:21;3.40;;;2.17;;
21305;SDS011;10812;51.838;5.838;2023-04-15T10:02:49;3.67;;;2.53;;
21305;SDS011;10812;51.838;5.838;2023-04-15T10:05:18;3.67;;;2.60;;
21305;SDS011;10812;51.838;5.838;2023-04-15T10:07:50;2.97;;;2.20;;
21305;SDS011;10812;51.838;5.838;2023-04-15T10:10:18;3.23;;;2.63;;
21305;SDS011;10812;51.838;5.838;2023-04-15T10:12:47;3.63;;;2.50;;
21305;SDS011;10812;51.838;5.838;2023-04-15T10:15:18;3.53;;;2.63;;
21305;SDS011;10812;51.838;5.838;2023-04-15T10:17:47;4.40;;;2.60;;
21305;SDS011;10812;51.838;5.838;2023-04-15T10:20:19;3.23;;;2.47;;
21305;SDS011;10812;51.838;5.838;2023-04-15T10:22:51;3.63;;;2.43;;
21305;SDS011;10812;51.838;5.838;2023-04-15T10:25:20;2.77;;;2.23;;
21305;SDS011;10812;51.838;5.838;2023-04-15T10:27:48;2.90;;;2.10;;
21305;SDS011;10812;51.838;5.838;2023-04-15T10:30:18;2.87;;;2.57;;
21305;SDS011;10812;51.838;5.838;2023-04-15T10:32:46;5.10;;;2.40;;
21305;SDS011;10812;51.838;5.838;2023-04-15T10:35:15;3.20;;;2.30;;
21305;SDS011;10812;51.838;5.838;2023-04-15T10:37:44;2.73;;;2.23;;
21305;SDS011;10812;51.838;5.838;2023-04-15T10:42:58;2.97;;;2.20;;
21305;SDS011;10812;51.838;5.838;2023-04-15T10:45:27;2.77;;;2.23;;
21305;SDS011;10812;51.838;5.838;2023-04-15T10:48:00;2.70;;;2.37;;
21305;SDS011;10812;51.838;5.838;2023-04-15T10:50:29;2.07;;;1.80;;
21305;SDS011;10812;51.838;5.838;2023-04-15T10:52:58;2.97;;;1.97;;
21305;SDS011;10812;51.838;5.838;2023-04-15T10:55:32;3.57;;;1.90;;
21305;SDS011;10812;51.838;5.838;2023-04-15T10:58:01;2.47;;;1.83;;
21305;SDS011;10812;51.838;5.838;2023-04-15T11:00:30;2.53;;;1.77;;
21305;SDS011;10812;51.838;5.838;2023-04-15T11:03:04;3.13;;;1.90;;
21305;SDS011;10812;51.838;5.838;2023-04-15T11:05:49;2.20;;;2.00;;
21305;SDS011;10812;51.838;5.838;2023-04-15T11:08:18;2.37;;;1.30;;
21305;SDS011;10812;51.838;5.838;2023-04-15T11:10:52;2.07;;;1.87;;
21305;SDS011;10812;51.838;5.838;2023-04-15T11:13:21;3.17;;;2.23;;
21305;SDS011;10812;51.838;5.838;2023-04-15T11:15:55;3.03;;;2.07;;
21305;SDS011;10812;51.838;5.838;2023-04-15T11:18:29;3.87;;;2.13;;
21305;SDS011;10812;51.838;5.838;2023-04-15T11:21:00;3.00;;;2.20;;
21305;SDS011;10812;51.838;5.838;2023-04-15T11:23:32;2.10;;;1.60;;
21305;SDS011;10812;51.838;5.838;2023-04-15T11:26:07;3.83;;;2.00;;
21305;SDS011;10812;51.838;5.838;2023-04-15T11:28:38;3.20;;;1.60;;
21305;SDS011;10812;51.838;5.838;2023-04-15T11:31:08;2.73;;;1.40;;
21305;SDS011;10812;51.838;5.838;2023-04-15T11:33:38;2.03;;;1.60;;
21305;SDS011;10812;51.838;5.838;2023-04-15T11:36:12;2.60;;;1.87;;
21305;SDS011;10812;51.838;5.838;2023-04-15T11:38:43;1.93;;;1.50;;
21305;SDS011;10812;51.838;5.838;2023-04-15T11:41:15;1.60;;;1.40;;
21305;SDS011;10812;51.838;5.838;2023-04-15T11:43:47;2.67;;;1.60;;
21305;SDS011;10812;51.838;5.838;2023-04-15T11:46:16;2.47;;;1.80;;
21305;SDS011;10812;51.838;5.838;2023-04-15T12:04:11;2.30;;;1.70;;
21305;SDS011;10812;51.838;5.838;2023-04-15T12:06:40;1.47;;;1.10;;
21305;SDS011;10812;51.838;5.838;2023-04-15T12:09:09;2.53;;;1.50;;
21305;SDS011;10812;51.838;5.838;2023-04-15T12:11:39;2.13;;;1.30;;
21305;SDS011;10812;51.838;5.838;2023-04-15T12:14:11;2.33;;;1.23;;
21305;SDS011;10812;51.838;5.838;2023-04-15T12:16:48;2.50;;;1.20;;
21305;SDS011;10812;51.838;5.838;2023-04-15T12:19:23;2.03;;;1.40;;
21305;SDS011;10812;51.838;5.838;2023-04-15T12:21:53;2.67;;;1.13;;
21305;SDS011;10812;51.838;5.838;2023-04-15T12:24:26;1.63;;;1.20;;
21305;SDS011;10812;51.838;5.838;2023-04-15T12:26:55;2.00;;;1.10;;
21305;SDS011;10812;51.838;5.838;2023-04-15T12:29:25;1.70;;;0.80;;
21305;SDS011;10812;51.838;5.838;2023-04-15T12:31:55;1.13;;;0.80;;
21305;SDS011;10812;51.838;5.838;2023-04-15T12:34:26;2.33;;;1.00;;
21305;SDS011;10812;51.838;5.838;2023-04-15T12:36:56;1.33;;;0.60;;
21305;SDS011;10812;51.838;5.838;2023-04-15T12:39:26;2.47;;;1.10;;
21305;SDS011;10812;51.838;5.838;2023-04-15T12:41:56;1.27;;;1.17;;
21305;SDS011;10812;51.838;5.838;2023-04-15T12:44:24;1.40;;;0.80;;
21305;SDS011;10812;51.838;5.838;2023-04-15T12:46:53;0.93;;;0.83;;
21305;SDS011;10812;51.838;5.838;2023-04-15T12:49:22;2.13;;;0.60;;
21305;SDS011;10812;51.838;5.838;2023-04-15T12:51:52;1.40;;;0.87;;
21305;SDS011;10812;51.838;5.838;2023-04-15T12:54:22;2.37;;;0.80;;
21305;SDS011;10812;51.838;5.838;2023-04-15T12:56:50;1.00;;;0.90;;
21305;SDS011;10812;51.838;5.838;2023-04-15T12:59:19;2.43;;;1.23;;
21305;SDS011;10812;51.838;5.838;2023-04-15T13:01:49;2.00;;;1.17;;
21305;SDS011;10812;51.838;5.838;2023-04-15T13:04:19;1.83;;;0.90;;
21305;SDS011;10812;51.838;5.838;2023-04-15T13:06:48;2.37;;;1.50;;
21305;SDS011;10812;51.838;5.838;2023-04-15T13:09:18;4.57;;;1.87;;
21305;SDS011;10812;51.838;5.838;2023-04-15T13:11:46;2.27;;;1.70;;
21305;SDS011;10812;51.838;5.838;2023-04-15T13:14:16;4.10;;;2.00;;
21305;SDS011;10812;51.838;5.838;2023-04-15T13:16:44;2.27;;;1.50;;
21305;SDS011;10812;51.838;5.838;2023-04-15T13:19:12;1.97;;;1.50;;
21305;SDS011;10812;51.838;5.838;2023-04-15T13:21:43;2.87;;;1.27;;
21305;SDS011;10812;51.838;5.838;2023-04-15T13:24:11;1.60;;;1.50;;
21305;SDS011;10812;51.838;5.838;2023-04-15T13:26:41;2.30;;;1.40;;
21305;SDS011;10812;51.838;5.838;2023-04-15T13:29:09;2.50;;;1.40;;
21305;SDS011;10812;51.838;5.838;2023-04-15T13:31:39;1.00;;;0.83;;
21305;SDS011;10812;51.838;5.838;2023-04-15T13:34:07;1.70;;;0.90;;
21305;SDS011;10812;51.838;5.838;2023-04-15T13:36:35;0.93;;;0.80;;
21305;SDS011;10812;51.838;5.838;2023-04-15T13:39:04;2.63;;;1.07;;
21305;SDS011;10812;51.838;5.838;2023-04-15T13:41:34;1.33;;;0.80;;
21305;SDS011;10812;51.838;5.838;2023-04-15T13:44:04;1.10;;;0.87;;
21305;SDS011;10812;51.838;5.838;2023-04-15T13:46:33;1.70;;;0.97;;
21305;SDS011;10812;51.838;5.838;2023-04-15T13:49:01;0.93;;;0.70;;
21305;SDS011;10812;51.838;5.838;2023-04-15T13:51:29;1.57;;;0.67;;
21305;SDS011;10812;51.838;5.838;2023-04-15T13:53:58;0.93;;;0.80;;
21305;SDS011;10812;51.838;5.838;2023-04-15T13:56:26;1.70;;;0.60;;
21305;SDS011;10812;51.838;5.838;2023-04-15T13:58:57;1.70;;;0.63;;
21305;SDS011;10812;51.838;5.838;2023-04-15T14:01:28;1.20;;;0.90;;
21305;SDS011;10812;51.838;5.838;2023-04-15T14:03:57;1.37;;;0.90;;
21305;SDS011;10812;51.838;5.838;2023-04-15T14:06:25;2.60;;;1.00;;
21305;SDS011;10812;51.838;5.838;2023-04-15T14:08:53;2.97;;;0.70;;
21305;SDS011;10812;51.838;5.838;2023-04-15T14:11:21;2.87;;;0.50;;
21305;SDS011;10812;51.838;5.838;2023-04-15T14:13:50;1.07;;;0.50;;
21305;SDS011;10812;51.838;5.838;2023-04-15T14:16:18;1.23;;;0.60;;
21305;SDS011;10812;51.838;5.838;2023-04-15T14:18:47;2.50;;;0.70;;
21305;SDS011;10812;51.838;5.838;2023-04-15T14:21:15;1.33;;;0.50;;
21305;SDS011;10812;51.838;5.838;2023-04-15T14:23:44;1.80;;;0.90;;
21305;SDS011;10812;51.838;5.838;2023-04-15T14:26:12;2.30;;;1.23;;
21305;SDS011;10812;51.838;5.838;2023-04-15T14:28:40;1.00;;;0.70;;
21305;SDS011;10812;51.838;5.838;2023-04-15T14:31:10;1.63;;;0.73;;
21305;SDS011;10812;51.838;5.838;2023-04-15T14:33:39;2.83;;;0.60;;
21305;SDS011;10812;51.838;5.838;2023-04-15T14:36:10;1.60;;;0.80;;
21305;SDS011;10812;51.838;5.838;2023-04-15T14:38:38;2.47;;;1.50;;
21305;SDS011;10812;51.838;5.838;2023-04-15T14:41:07;1.43;;;0.60;;
21305;SDS011;10812;51.838;5.838;2023-04-15T14:43:35;2.37;;;0.70;;
21305;SDS011;10812;51.838;5.838;2023-04-15T14:46:04;0.60;;;0.43;;
21305;SDS011;10812;51.838;5.838;2023-04-15T14:48:33;0.87;;;0.60;;
21305;SDS011;10812;51.838;5.838;2023-04-15T14:54:44;1.27;;;0.70;;
21305;SDS011;10812;51.838;5.838;2023-04-15T14:57:12;0.90;;;0.50;;
21305;SDS011;10812;51.838;5.838;2023-04-15T14:59:40;1.20;;;0.70;;
21305;SDS011;10812;51.838;5.838;2023-04-15T15:02:08;1.33;;;0.70;;
21305;SDS011;10812;51.838;5.838;2023-04-15T15:04:40;0.93;;;0.80;;
21305;SDS011;10812;51.838;5.838;2023-04-15T15:07:08;0.80;;;0.80;;
21305;SDS011;10812;51.838;5.838;2023-04-15T15:09:36;2.33;;;0.97;;
21305;SDS011;10812;51.838;5.838;2023-04-15T15:12:08;3.23;;;1.40;;
21305;SDS011;10812;51.838;5.838;2023-04-15T15:14:37;1.80;;;1.10;;
21305;SDS011;10812;51.838;5.838;2023-04-15T15:17:05;0.80;;;0.60;;
21305;SDS011;10812;51.838;5.838;2023-04-15T15:19:33;4.63;;;3.17;;
21305;SDS011;10812;51.838;5.838;2023-04-15T15:22:01;4.80;;;1.77;;
21305;SDS011;10812;51.838;5.838;2023-04-15T15:24:30;2.03;;;1.20;;
21305;SDS011;10812;51.838;5.838;2023-04-15T15:26:58;2.17;;;1.77;;
21305;SDS011;10812;51.838;5.838;2023-04-15T15:29:28;2.60;;;1.30;;
21305;SDS011;10812;51.838;5.838;2023-04-15T15:31:56;3.97;;;1.07;;
21305;SDS011;10812;51.838;5.838;2023-04-15T15:34:24;1.13;;;0.87;;
21305;SDS011;10812;51.838;5.838;2023-04-15T15:36:53;1.50;;;0.80;;
21305;SDS011;10812;51.838;5.838;2023-04-15T15:39:22;2.83;;;1.10;;
21305;SDS011;10812;51.838;5.838;2023-04-15T15:41:50;4.10;;;1.10;;
21305;SDS011;10812;51.838;5.838;2023-04-15T15:44:18;5.60;;;1.03;;
21305;SDS011;10812;51.838;5.838;2023-04-15T15:46:48;2.33;;;1.23;;
21305;SDS011;10812;51.838;5.838;2023-04-15T15:49:17;1.70;;;1.20;;
21305;SDS011;10812;51.838;5.838;2023-04-15T15:51:45;3.80;;;1.40;;
21305;SDS011;10812;51.838;5.838;2023-04-15T15:54:15;2.27;;;1.10;;
21305;SDS011;10812;51.838;5.838;2023-04-15T15:56:43;3.43;;;1.83;;
21305;SDS011;10812;51.838;5.838;2023-04-15T15:59:11;3.97;;;1.57;;